Time;durP1;ratioP1;P1;durP2;ratioP2;P2;SDS_P1;SDS_P2;PMS_P1;PMS_P2;Temp;Humidity;BMP_temperature;BMP_pressure;BME280_temperature;BME280_humidity;BME280_pressure;Samples;Min_cycle;Max_cycle;Signal;HPM_P1;HPM_P2
2023/01/29 00:00:49;;;;;;;;;;;;;;;7.99;70.90;102428.38;7354183;19;19948;-56
2023/01/29 00:03:14;;;;;;;;;;;;;;;8.00;70.97;102418.84;7357782;19;19936;-56
2023/01/29 00:05:40;;;;;;;;;;;;;;;7.99;70.92;102425.78;7355325;19;19933;-56
2023/01/29 00:08:05;;;;;;;;;;;;;;;7.99;70.92;102412.78;7357215;19;19914;-56
2023/01/29 00:10:30;;;;;;;;;;;;;;;8.00;71.11;102418.84;7344680;19;20335;-55
2023/01/29 00:12:55;;;;;;;;;;;;;;;7.99;70.82;102417.97;7349492;19;20670;-56
2023/01/29 00:15:21;;;;;;;;;;;;;;;7.99;70.94;102420.56;7355993;19;20034;-55
2023/01/29 00:17:46;;;;;;;;;;;;;;;7.98;70.81;102426.63;7350536;19;20611;-57
2023/01/29 00:20:11;;;;;;;;;;;;;;;7.97;70.77;102418.81;7353639;19;19919;-56
2023/01/29 00:22:37;;;;;;;;;;;;;;;7.96;70.88;102417.94;7351781;19;19954;-56
2023/01/29 00:25:02;;;;;;;;;;;;;;;7.97;70.90;102427.50;7352860;19;19943;-53
2023/01/29 00:27:28;;;;;;;;;;;;;;;7.96;70.78;102420.53;7354748;19;19927;-56
2023/01/29 00:30:10;;;;;;;;;;;;;;;7.95;70.67;102426.56;7354502;19;19923;-54
2023/01/29 00:32:36;;;;;;;;;;;;;;;7.94;71.13;102427.44;7352072;19;19918;-56
2023/01/29 00:35:01;;;;;;;;;;;;;;;7.95;70.70;102430.91;7358142;19;19962;-55
2023/01/29 00:37:26;;;;;;;;;;;;;;;7.94;70.67;102423.97;7361014;19;19915;-57
2023/01/29 00:39:52;;;;;;;;;;;;;;;7.93;71.18;102420.47;7362673;19;19911;-56
2023/01/29 00:45:01;;;;;;;;;;;;;;;7.92;70.76;102426.53;7360335;19;19934;-56
2023/01/29 00:47:29;;;;;;;;;;;;;;;7.91;70.90;102424.78;7363545;19;21369;-55
2023/01/29 00:49:54;;;;;;;;;;;;;;;7.92;71.06;102420.47;7361108;19;19915;-55
2023/01/29 00:52:22;;;;;;;;;;;;;;;7.91;70.93;102414.41;7364239;19;19951;-55
2023/01/29 00:54:48;;;;;;;;;;;;;;;7.90;70.78;102406.53;7363031;19;20591;-55
2023/01/29 00:57:13;;;;;;;;;;;;;;;7.89;70.71;102403.06;7366604;19;21793;-54
2023/01/29 00:59:38;;;;;;;;;;;;;;;7.88;71.18;102398.72;7364219;19;19930;-56
2023/01/29 01:04:47;;;;;;;;;;;;;;;7.88;71.17;102398.72;7363793;19;20744;-55
2023/01/29 01:07:13;;;;;;;;;;;;;;;7.87;70.89;102391.78;7366370;19;19922;-55
2023/01/29 01:12:22;;;;;;;;;;;;;;;7.87;71.12;102391.78;7365843;19;19930;-56
2023/01/29 01:14:48;;;;;;;;;;;;;;;7.87;71.03;102396.97;7364977;19;19919;-55
2023/01/29 01:17:14;;;;;;;;;;;;;;;7.87;71.18;102394.38;7364643;19;19926;-53
2023/01/29 01:19:39;;;;;;;;;;;;;;;7.87;71.23;102386.56;7365803;19;19990;-55
2023/01/29 01:22:04;;;;;;;;;;;;;;;7.88;70.80;102384.84;7360697;19;19923;-55
2023/01/29 01:24:30;;;;;;;;;;;;;;;7.87;70.86;102378.78;7364015;19;20030;-56
2023/01/29 01:26:55;;;;;;;;;;;;;;;7.86;71.18;102374.44;7365824;19;19958;-55
2023/01/29 01:29:21;;;;;;;;;;;;;;;7.86;70.99;102378.75;7366043;19;19941;-55
2023/01/29 01:31:46;;;;;;;;;;;;;;;7.83;71.26;102366.56;7362859;19;20009;-54
2023/01/29 01:34:11;;;;;;;;;;;;;;;7.83;70.81;102363.97;7365304;19;20410;-56
2023/01/29 01:36:36;;;;;;;;;;;;;;;7.82;70.96;102361.34;7363380;19;19933;-55
2023/01/29 01:39:02;;;;;;;;;;;;;;;7.82;70.98;102364.81;7364620;19;19919;-54
2023/01/29 01:41:28;;;;;;;;;;;;;;;7.81;70.76;102355.28;7366082;19;19952;-54
2023/01/29 01:43:54;;;;;;;;;;;;;;;7.78;70.72;102357.81;7362267;19;19942;-55
2023/01/29 01:46:20;;;;;;;;;;;;;;;7.76;70.68;102356.94;7357251;19;19919;-55
2023/01/29 01:48:47;;;;;;;;;;;;;;;7.74;70.71;102362.09;7365296;19;20334;-57
2023/01/29 01:51:15;;;;;;;;;;;;;;;7.72;70.94;102355.13;7361311;19;19915;-56
2023/01/29 01:53:48;;;;;;;;;;;;;;;7.69;70.51;102365.47;7364394;19;20775;-55
2023/01/29 01:56:16;;;;;;;;;;;;;;;7.66;70.99;102360.25;7360742;19;20625;-56
2023/01/29 01:58:49;;;;;;;;;;;;;;;7.64;70.50;102356.72;7363698;19;19911;-55
2023/01/29 02:01:14;;;;;;;;;;;;;;;7.61;70.74;102352.38;7361823;19;19918;-55
2023/01/29 02:09:33;;;;;;;;;;;;;;;7.53;71.18;102354.84;7356960;19;19949;-55
2023/01/29 02:11:59;;;;;;;;;;;;;;;7.55;71.43;102354.84;7365812;19;20570;-52
2023/01/29 02:14:25;;;;;;;;;;;;;;;7.52;71.27;102358.28;7363711;19;20021;-55
2023/01/29 02:16:50;;;;;;;;;;;;;;;7.52;71.46;102345.28;7363412;19;19947;-54
2023/01/29 02:19:22;;;;;;;;;;;;;;;7.53;71.53;102343.56;7363279;19;19993;-56
2023/01/29 02:22:06;;;;;;;;;;;;;;;7.51;71.47;102346.16;7359248;19;19918;-55
2023/01/29 02:24:41;;;;;;;;;;;;;;;7.51;71.56;102327.94;7364552;19;20004;-55
2023/01/29 02:27:09;;;;;;;;;;;;;;;7.53;71.58;102331.44;7363641;19;20011;-56
2023/01/29 02:29:39;;;;;;;;;;;;;;;7.52;71.70;102321.03;7360895;19;20294;-54
2023/01/29 02:32:19;;;;;;;;;;;;;;;7.52;71.29;102308.91;7364067;19;19919;-56
2023/01/29 02:37:34;;;;;;;;;;;;;;;7.52;71.61;102306.28;7358178;19;19921;-55
2023/01/29 02:40:06;;;;;;;;;;;;;;;7.53;71.35;102308.03;7363942;19;19923;-56
2023/01/29 02:42:43;;;;;;;;;;;;;;;7.53;71.25;102305.44;7364021;19;19919;-55
2023/01/29 02:45:15;;;;;;;;;;;;;;;7.54;71.41;102299.38;7362610;19;19923;-56
2023/01/29 02:47:40;;;;;;;;;;;;;;;7.53;71.64;102297.63;7362410;19;19927;-55
2023/01/29 02:50:14;;;;;;;;;;;;;;;7.54;71.56;102295.91;7363562;19;20956;-56
2023/01/29 02:52:49;;;;;;;;;;;;;;;7.54;71.67;102291.59;7361793;19;19930;-56
2023/01/29 02:55:24;;;;;;;;;;;;;;;7.56;71.43;102285.56;7356589;19;19922;-56
2023/01/29 02:57:51;;;;;;;;;;;;;;;7.56;71.54;102280.38;7350910;19;20022;-56
2023/01/29 03:00:19;;;;;;;;;;;;;;;7.56;71.53;102288.16;7358899;19;19926;-55
2023/01/29 03:03:03;;;;;;;;;;;;;;;7.57;71.56;102282.09;7360590;19;20539;-54
2023/01/29 03:05:32;;;;;;;;;;;;;;;7.57;71.52;102292.50;7360132;19;19923;-54
2023/01/29 03:08:03;;;;;;;;;;;;;;;7.57;72.12;102284.69;7358873;19;20553;-53
2023/01/29 03:10:38;;;;;;;;;;;;;;;7.57;72.01;102276.91;7348905;19;19921;-52
2023/01/29 03:13:20;;;;;;;;;;;;;;;7.54;72.05;102282.91;7357026;19;19914;-55
2023/01/29 03:15:50;;;;;;;;;;;;;;;7.54;72.07;102282.91;7360884;19;20990;-54
2023/01/29 03:18:24;;;;;;;;;;;;;;;7.53;72.15;102273.38;7358352;19;19921;-55
2023/01/29 03:20:52;;;;;;;;;;;;;;;7.53;72.05;102275.97;7361449;19;19923;-56
2023/01/29 03:23:25;;;;;;;;;;;;;;;7.51;71.83;102270.75;7353244;19;19926;-56
2023/01/29 03:34:15;;;;;;;;;;;;;;;7.50;72.12;102263.81;7361419;19;19931;-55
2023/01/29 03:36:54;;;;;;;;;;;;;;;7.50;72.09;102269.03;7353127;19;19981;-55
2023/01/29 03:39:20;;;;;;;;;;;;;;;7.50;72.07;102266.41;7353177;19;19927;-55
2023/01/29 03:42:06;;;;;;;;;;;;;;;7.50;72.08;102250.81;7361771;19;20950;-56
2023/01/29 03:44:36;;;;;;;;;;;;;;;7.51;72.09;102242.16;7255882;19;2004437;-55
2023/01/29 03:47:21;;;;;;;;;;;;;;;7.51;72.04;102241.28;7360060;19;19934;-56
2023/01/29 03:50:08;;;;;;;;;;;;;;;7.49;71.67;102238.66;7357047;19;19919;-55
2023/01/29 03:52:52;;;;;;;;;;;;;;;7.49;71.50;102237.78;7359805;19;19915;-54
2023/01/29 03:55:25;;;;;;;;;;;;;;;7.48;71.50;102233.44;7358839;19;20007;-55
2023/01/29 03:57:59;;;;;;;;;;;;;;;7.46;71.43;102228.22;7355672;19;19933;-54
2023/01/29 04:00:29;;;;;;;;;;;;;;;7.44;71.38;102224.72;7358118;19;19930;-56
2023/01/29 04:02:54;;;;;;;;;;;;;;;7.34;71.33;102207.25;7349778;19;19942;-52
2023/01/29 04:05:21;;;;;;;;;;;;;;;7.38;71.12;102209.03;7344575;19;19994;-55
2023/01/29 04:07:49;;;;;;;;;;;;;;;7.34;71.60;102209.84;7361603;19;19930;-56
2023/01/29 04:10:16;;;;;;;;;;;;;;;7.31;71.10;102202.03;7365952;19;19927;-55
2023/01/29 04:12:46;;;;;;;;;;;;;;;7.28;71.21;102207.16;7365235;19;20591;-56
2023/01/29 04:15:14;;;;;;;;;;;;;;;7.23;71.21;102214.88;7367032;19;19919;-54
2023/01/29 04:17:41;;;;;;;;;;;;;;;7.18;71.31;102203.53;7365198;19;19960;-56
2023/01/29 04:20:08;;;;;;;;;;;;;;;7.14;71.15;102199.16;7361387;19;19961;-56
2023/01/29 04:22:34;;;;;;;;;;;;;;;7.10;71.28;102191.31;7354356;19;19921;-54
2023/01/29 04:25:07;;;;;;;;;;;;;;;7.06;71.18;102190.38;7365385;19;19934;-56
2023/01/29 04:27:51;;;;;;;;;;;;;;;7.01;70.94;102192.03;7363394;19;19919;-51
2023/01/29 04:30:20;;;;;;;;;;;;;;;6.96;71.00;102189.34;7365729;19;19950;-56
2023/01/29 04:33:04;;;;;;;;;;;;;;;6.92;71.18;102187.56;7366063;19;19929;-56
2023/01/29 04:35:47;;;;;;;;;;;;;;;6.86;70.88;102182.28;7359344;19;19944;-52
2023/01/29 04:38:42;;;;;;;;;;;;;;;6.82;70.85;102180.47;7360695;19;19943;-55
2023/01/29 04:41:07;;;;;;;;;;;;;;;6.79;70.76;102169.16;7257154;19;2004679;-55
2023/01/29 04:43:41;;;;;;;;;;;;;;;6.74;71.22;102171.66;7365285;19;19927;-52
2023/01/29 04:46:25;;;;;;;;;;;;;;;6.71;71.26;102179.41;7361328;19;20347;-56
2023/01/29 04:48:50;;;;;;;;;;;;;;;6.67;71.26;102180.22;7365464;19;19923;-56
2023/01/29 04:51:23;;;;;;;;;;;;;;;6.62;70.88;102177.53;7365784;19;19940;-54
2023/01/29 04:54:07;;;;;;;;;;;;;;;6.60;71.13;102178.38;7363199;19;19918;-56
2023/01/29 04:56:38;;;;;;;;;;;;;;;6.57;71.22;102167.91;7364482;19;20448;-54
2023/01/29 04:59:06;;;;;;;;;;;;;;;6.53;71.14;102161.78;7365308;19;19919;-53
2023/01/29 05:01:32;;;;;;;;;;;;;;;6.49;71.48;102171.28;7362829;19;19974;-55
2023/01/29 05:03:59;;;;;;;;;;;;;;;6.48;71.21;102168.63;7366229;19;19922;-55
2023/01/29 05:06:24;;;;;;;;;;;;;;;6.45;71.46;102164.28;7365131;19;19940;-52
2023/01/29 05:08:50;;;;;;;;;;;;;;;6.42;71.31;102156.41;7364372;19;19922;-55
2023/01/29 05:11:16;;;;;;;;;;;;;;;6.41;71.06;102153.81;7365551;19;19956;-56
2023/01/29 05:13:42;;;;;;;;;;;;;;;6.40;71.07;102154.66;7365428;19;19950;-55
2023/01/29 05:16:07;;;;;;;;;;;;;;;6.36;71.11;102150.25;7366612;19;19922;-55
2023/01/29 05:18:32;;;;;;;;;;;;;;;6.35;71.44;102144.19;7361016;19;19927;-54
2023/01/29 05:21:01;;;;;;;;;;;;;;;6.33;71.42;102148.47;7365297;19;19926;-56
2023/01/29 05:23:27;;;;;;;;;;;;;;;6.31;71.15;102142.38;7361485;19;19937;-56
2023/01/29 05:25:52;;;;;;;;;;;;;;;6.28;71.49;102147.50;7365120;19;19914;-55
2023/01/29 05:28:17;;;;;;;;;;;;;;;6.27;71.59;102143.19;7360347;19;19934;-53
2023/01/29 05:30:43;;;;;;;;;;;;;;;6.26;71.75;102144.03;7366473;19;19938;-52
2023/01/29 05:33:13;;;;;;;;;;;;;;;6.23;71.83;102141.38;7362561;19;19972;-55
2023/01/29 05:35:38;;;;;;;;;;;;;;;6.22;71.89;102148.28;7365075;19;19922;-56
2023/01/29 05:38:03;;;;;;;;;;;;;;;6.22;71.61;102139.63;7359306;19;22301;-54
2023/01/29 05:40:29;;;;;;;;;;;;;;;6.22;71.66;102135.31;7363145;19;19919;-56
2023/01/29 05:42:54;;;;;;;;;;;;;;;6.22;72.00;102130.13;7362876;19;19918;-55
2023/01/29 05:45:19;;;;;;;;;;;;;;;6.25;71.99;102139.69;7363441;19;19923;-56
2023/01/29 05:47:45;;;;;;;;;;;;;;;6.27;71.86;102121.56;7362317;19;19913;-54
2023/01/29 05:50:11;;;;;;;;;;;;;;;6.29;72.42;102114.69;7362408;19;20348;-55
2023/01/29 05:52:36;;;;;;;;;;;;;;;6.31;72.14;102121.63;7360605;19;19948;-53
2023/01/29 05:55:01;;;;;;;;;;;;;;;6.34;72.54;102116.50;7363538;19;19935;-56
2023/01/29 05:57:27;;;;;;;;;;;;;;;6.37;72.35;102111.34;7362577;19;19919;-53
2023/01/29 05:59:52;;;;;;;;;;;;;;;6.38;72.50;102107.91;7358550;19;19919;-55
2023/01/29 06:02:17;;;;;;;;;;;;;;;6.41;72.31;102104.50;7360814;19;19933;-56
2023/01/29 06:04:42;;;;;;;;;;;;;;;6.45;72.31;102116.69;7363767;19;19955;-51
2023/01/29 06:07:08;;;;;;;;;;;;;;;6.47;72.28;102115.84;7363292;19;19915;-55
2023/01/29 06:09:33;;;;;;;;;;;;;;;6.50;72.42;102117.66;7360443;19;20331;-54
2023/01/29 06:11:58;;;;;;;;;;;;;;;6.52;72.36;102117.66;7363549;19;19967;-54
2023/01/29 06:14:23;;;;;;;;;;;;;;;6.53;72.48;102115.06;7359893;19;20690;-56
2023/01/29 06:16:49;;;;;;;;;;;;;;;6.56;72.41;102111.69;7361613;19;20367;-54
2023/01/29 06:19:14;;;;;;;;;;;;;;;6.58;72.51;102112.56;7364843;19;19918;-54
2023/01/29 06:21:39;;;;;;;;;;;;;;;6.59;72.71;102103.91;7362861;19;19926;-53
2023/01/29 06:24:04;;;;;;;;;;;;;;;6.60;72.28;102113.47;7364512;19;19919;-55
2023/01/29 06:26:30;;;;;;;;;;;;;;;6.62;72.35;102111.78;7358802;19;19926;-54
2023/01/29 06:28:55;;;;;;;;;;;;;;;6.63;72.66;102116.09;7365489;19;20267;-55
2023/01/29 06:31:20;;;;;;;;;;;;;;;6.64;72.72;102117.84;7363779;19;20010;-55
2023/01/29 06:33:46;;;;;;;;;;;;;;;6.65;72.94;102114.44;7361656;19;19927;-56
2023/01/29 06:36:11;;;;;;;;;;;;;;;6.66;72.61;102104.06;7353998;19;20633;-53
2023/01/29 06:38:36;;;;;;;;;;;;;;;6.67;72.93;102108.41;7363529;19;20624;-54
2023/01/29 06:41:18;;;;;;;;;;;;;;;6.69;72.74;102116.19;7358406;19;19919;-55
2023/01/29 06:43:44;;;;;;;;;;;;;;;6.71;72.86;102098.94;7364838;19;19918;-53
2023/01/29 06:46:09;;;;;;;;;;;;;;;6.72;72.69;102096.38;7358339;19;21188;-56
2023/01/29 06:48:35;;;;;;;;;;;;;;;6.73;72.81;102098.09;7360843;19;20006;-56
2023/01/29 06:51:01;;;;;;;;;;;;;;;6.75;73.02;102091.22;7362389;19;19930;-56
2023/01/29 06:53:26;;;;;;;;;;;;;;;6.78;72.73;102095.56;7359311;19;19953;-56
2023/01/29 06:55:51;;;;;;;;;;;;;;;6.74;72.84;102088.59;7361243;19;19923;-54
2023/01/29 06:58:17;;;;;;;;;;;;;;;6.82;73.00;102102.56;7350138;19;19918;-56
2023/01/29 07:00:42;;;;;;;;;;;;;;;6.83;73.19;102099.13;7360348;19;19929;-54
2023/01/29 07:03:07;;;;;;;;;;;;;;;6.86;73.17;102100.91;7359700;19;19926;-56
2023/01/29 07:05:33;;;;;;;;;;;;;;;6.87;73.38;102085.34;7361357;19;19942;-53
2023/01/29 07:07:58;;;;;;;;;;;;;;;6.89;73.12;102081.03;7362507;19;19918;-54
2023/01/29 07:10:23;;;;;;;;;;;;;;;6.90;73.13;102090.59;7359737;19;20477;-55
2023/01/29 07:12:48;;;;;;;;;;;;;;;6.92;73.33;102083.69;7359463;19;20317;-53
2023/01/29 07:15:18;;;;;;;;;;;;;;;6.95;73.43;102083.75;7360832;19;19949;-53
2023/01/29 07:17:43;;;;;;;;;;;;;;;6.96;73.19;102069.91;7351514;19;20256;-54
2023/01/29 07:20:09;;;;;;;;;;;;;;;6.98;73.34;102075.97;7362434;19;19926;-54
2023/01/29 07:22:34;;;;;;;;;;;;;;;6.99;73.31;102064.75;7356933;19;19947;-51
2023/01/29 07:24:59;;;;;;;;;;;;;;;7.01;72.97;102068.22;7356827;19;20434;-55
2023/01/29 07:27:26;;;;;;;;;;;;;;;7.03;73.05;102066.50;7358541;19;19937;-56
2023/01/29 07:29:51;;;;;;;;;;;;;;;7.05;73.30;102068.28;7361186;19;19923;-53
2023/01/29 07:32:16;;;;;;;;;;;;;;;7.08;73.20;102068.31;7358769;19;19942;-54
2023/01/29 07:34:41;;;;;;;;;;;;;;;7.08;73.17;102063.97;7360297;19;19925;-56
2023/01/29 07:37:07;;;;;;;;;;;;;;;7.10;73.53;102061.44;7357397;19;19933;-55
2023/01/29 07:39:32;;;;;;;;;;;;;;;7.11;73.12;102055.38;7363208;19;19930;-55
2023/01/29 07:41:57;;;;;;;;;;;;;;;7.11;73.40;102058.84;7362868;19;20713;-55
2023/01/29 07:44:23;;;;;;;;;;;;;;;7.12;73.31;102044.13;7375189;19;20742;-55
2023/01/29 07:46:48;;;;;;;;;;;;;;;7.12;73.22;102036.34;7369693;19;20335;-55
2023/01/29 07:49:13;;;;;;;;;;;;;;;7.12;73.04;102041.53;7375662;19;20729;-55
2023/01/29 07:51:39;;;;;;;;;;;;;;;7.13;73.50;102048.47;7368653;19;19939;-53
2023/01/29 07:54:04;;;;;;;;;;;;;;;7.13;73.49;102035.47;7373797;19;19915;-56
2023/01/29 07:56:29;;;;;;;;;;;;;;;7.14;73.32;102032.03;7372309;19;19945;-56
2023/01/29 07:58:55;;;;;;;;;;;;;;;7.15;73.62;102020.81;7369067;19;20270;-53
2023/01/29 08:01:20;;;;;;;;;;;;;;;7.15;73.27;102024.28;7369846;19;19915;-56
2023/01/29 08:03:45;;;;;;;;;;;;;;;7.16;73.50;102020.81;7373775;19;19918;-55
2023/01/29 08:06:10;;;;;;;;;;;;;;;7.16;73.55;102035.53;7372562;19;19923;-55
2023/01/29 08:08:35;;;;;;;;;;;;;;;7.16;73.64;102030.34;7370637;19;20318;-56
2023/01/29 08:11:01;;;;;;;;;;;;;;;7.16;73.86;102036.41;7374025;19;19937;-56
2023/01/29 08:13:26;;;;;;;;;;;;;;;7.17;73.61;102037.28;7369554;19;19918;-55
2023/01/29 08:15:52;;;;;;;;;;;;;;;7.17;74.02;102037.28;7373589;19;21186;-55
2023/01/29 08:18:17;;;;;;;;;;;;;;;7.17;73.77;102026.88;7372771;19;19946;-54
2023/01/29 08:20:42;;;;;;;;;;;;;;;7.18;74.09;102039.00;7370022;19;19951;-54
2023/01/29 08:23:13;;;;;;;;;;;;;;;7.19;73.97;102038.16;7371086;19;20363;-55
2023/01/29 08:25:38;;;;;;;;;;;;;;;7.21;74.18;102049.44;7370814;19;19923;-56
2023/01/29 08:28:03;;;;;;;;;;;;;;;7.24;74.00;102039.06;7364845;19;22901;-54
2023/01/29 08:30:31;;;;;;;;;;;;;;;7.26;74.16;102037.38;7357535;19;19915;-55
2023/01/29 08:32:59;;;;;;;;;;;;;;;7.26;74.43;102048.66;7368206;19;20059;-56
2023/01/29 08:35:25;;;;;;;;;;;;;;;7.29;74.33;102037.41;7369419;19;19915;-55
2023/01/29 08:37:54;;;;;;;;;;;;;;;7.32;74.57;102047.84;7372809;19;19949;-52
2023/01/29 08:40:19;;;;;;;;;;;;;;;7.35;74.53;102041.81;7369458;19;19931;-55
2023/01/29 08:42:44;;;;;;;;;;;;;;;7.37;74.50;102051.38;7373425;19;19928;-54
2023/01/29 08:45:10;;;;;;;;;;;;;;;7.40;74.48;102051.44;7368692;19;19923;-55
2023/01/29 08:47:35;;;;;;;;;;;;;;;7.41;74.42;102054.91;7372662;19;19923;-55
2023/01/29 08:50:00;;;;;;;;;;;;;;;7.42;74.62;102047.09;7372622;19;19926;-54
2023/01/29 08:52:25;;;;;;;;;;;;;;;7.44;74.63;102045.38;7368668;19;19914;-56
2023/01/29 08:54:51;;;;;;;;;;;;;;;7.47;74.47;102053.22;7361415;19;19927;-55
2023/01/29 08:57:16;;;;;;;;;;;;;;;7.49;74.51;102048.91;7364853;19;20018;-55
2023/01/29 08:59:41;;;;;;;;;;;;;;;7.51;74.64;102044.63;7365139;19;19919;-54
2023/01/29 09:02:07;;;;;;;;;;;;;;;7.54;74.67;102042.03;7364771;19;19926;-55
2023/01/29 09:04:33;;;;;;;;;;;;;;;7.56;74.51;102042.06;7363807;19;19941;-56
2023/01/29 09:06:58;;;;;;;;;;;;;;;7.59;75.01;102041.22;7364048;19;19926;-54
2023/01/29 09:09:23;;;;;;;;;;;;;;;7.61;75.02;102049.94;7365238;19;20284;-55
2023/01/29 09:11:48;;;;;;;;;;;;;;;7.62;74.97;102051.66;7362751;19;19918;-55
2023/01/29 09:14:14;;;;;;;;;;;;;;;7.65;74.92;102036.94;7348862;19;19923;-55
2023/01/29 09:16:39;;;;;;;;;;;;;;;7.66;74.84;102054.31;7364898;19;19927;-56
2023/01/29 09:19:04;;;;;;;;;;;;;;;7.69;74.80;102045.66;7364443;19;19922;-55
2023/01/29 09:21:29;;;;;;;;;;;;;;;7.71;74.80;102054.38;7364349;19;19930;-56
2023/01/29 09:23:55;;;;;;;;;;;;;;;7.72;74.61;102054.38;7364512;19;19937;-55
2023/01/29 09:26:20;;;;;;;;;;;;;;;7.75;74.78;102054.41;7364110;19;20000;-54
2023/01/29 09:28:45;;;;;;;;;;;;;;;7.79;74.62;102055.31;7360903;19;20376;-55
2023/01/29 09:31:10;;;;;;;;;;;;;;;7.82;75.11;102055.34;7366194;19;20271;-54
2023/01/29 09:33:36;;;;;;;;;;;;;;;7.86;74.72;102057.13;7361414;19;19922;-54
2023/01/29 09:36:02;;;;;;;;;;;;;;;7.88;74.96;102058.00;7360832;19;19942;-56
2023/01/29 09:38:27;;;;;;;;;;;;;;;7.91;74.67;102071.06;7362016;19;19951;-54
2023/01/29 09:41:18;;;;;;;;;;;;;;;7.95;74.88;102056.34;7361210;19;19948;-54
2023/01/29 09:43:46;;;;;;;;;;;;;;;7.98;74.88;102052.03;7263980;19;2004287;-56
2023/01/29 09:46:18;;;;;;;;;;;;;;;8.02;75.01;102052.94;7358138;19;19958;-56
2023/01/29 09:49:02;;;;;;;;;;;;;;;8.04;74.68;102051.22;7364755;19;19914;-52
2023/01/29 09:51:29;;;;;;;;;;;;;;;8.06;74.61;102050.41;7363072;19;19922;-55
2023/01/29 09:56:47;;;;;;;;;;;;;;;8.12;74.44;102056.50;7355586;19;19935;-56
2023/01/29 09:59:29;;;;;;;;;;;;;;;8.14;74.78;102057.38;7363341;19;20376;-56
2023/01/29 10:02:07;;;;;;;;;;;;;;;8.17;74.82;102054.81;7360587;19;20332;-55
2023/01/29 10:04:35;;;;;;;;;;;;;;;8.19;74.71;102046.16;7361912;19;19928;-56
2023/01/29 10:07:19;;;;;;;;;;;;;;;8.22;74.34;102046.19;7361115;19;19926;-54
2023/01/29 10:09:45;;;;;;;;;;;;;;;8.12;74.48;102028.75;7362697;19;19982;-53
2023/01/29 10:12:13;;;;;;;;;;;;;;;8.27;74.83;102048.84;7363212;19;19990;-55
2023/01/29 10:14:47;;;;;;;;;;;;;;;8.28;74.71;102040.16;7360884;19;19924;-55
2023/01/29 10:17:21;;;;;;;;;;;;;;;8.32;74.74;102041.94;7357386;19;19946;-54
2023/01/29 10:19:49;;;;;;;;;;;;;;;8.35;74.56;102047.16;7356819;19;19922;-56
2023/01/29 10:22:15;;;;;;;;;;;;;;;8.38;74.47;102036.81;7356295;19;19936;-56
2023/01/29 10:25:18;;;;;;;;;;;;;;;8.42;74.55;102038.59;7356605;19;19915;-56
2023/01/29 10:27:48;;;;;;;;;;;;;;;8.46;74.36;102024.72;7245733;19;2004914;-56
2023/01/29 10:30:22;;;;;;;;;;;;;;;8.50;74.36;102036.88;7352082;19;20009;-56
2023/01/29 10:32:48;;;;;;;;;;;;;;;8.54;74.76;102023.03;7355717;19;19919;-55
2023/01/29 10:35:22;;;;;;;;;;;;;;;8.57;74.69;102015.25;7360492;19;19925;-55
2023/01/29 10:37:47;;;;;;;;;;;;;;;8.60;74.79;102013.53;7350376;19;20595;-55
2023/01/29 10:40:20;;;;;;;;;;;;;;;8.62;74.63;102011.78;7362789;19;22103;-56
2023/01/29 10:42:51;;;;;;;;;;;;;;;8.65;74.38;102025.72;7357420;19;19926;-55
2023/01/29 10:45:28;;;;;;;;;;;;;;;8.68;74.68;102019.66;7358855;19;19922;-56
2023/01/29 10:48:03;;;;;;;;;;;;;;;8.69;74.00;102021.41;7356459;19;19954;-53
2023/01/29 10:50:28;;;;;;;;;;;;;;;8.72;74.45;102021.44;7348579;19;19941;-54
2023/01/29 10:53:12;;;;;;;;;;;;;;;8.71;74.31;102011.84;7360764;19;19919;-55
2023/01/29 10:55:55;;;;;;;;;;;;;;;8.72;74.12;102011.88;7361978;19;19939;-56
2023/01/29 10:58:20;;;;;;;;;;;;;;;8.73;74.18;101997.13;7360628;19;19926;-53
2023/01/29 11:00:46;;;;;;;;;;;;;;;8.74;74.46;101997.13;7359375;19;22225;-55
2023/01/29 11:03:17;;;;;;;;;;;;;;;8.74;74.39;101999.72;7360537;19;20258;-55
2023/01/29 11:05:54;;;;;;;;;;;;;;;8.76;74.37;102003.19;7361527;19;19946;-56
2023/01/29 11:08:27;;;;;;;;;;;;;;;8.76;74.16;102002.34;7355995;19;19926;-55
2023/01/29 11:11:08;;;;;;;;;;;;;;;8.79;74.34;101997.16;7360459;19;19926;-56
2023/01/29 11:13:47;;;;;;;;;;;;;;;8.81;74.18;101995.41;7361717;19;19922;-56
2023/01/29 11:16:12;;;;;;;;;;;;;;;8.82;74.34;101974.59;7353428;19;19923;-55
2023/01/29 11:18:57;;;;;;;;;;;;;;;8.82;74.13;101955.50;7358302;19;20248;-56
2023/01/29 11:21:23;;;;;;;;;;;;;;;8.84;74.48;101953.78;7354405;19;19919;-53
2023/01/29 11:23:49;;;;;;;;;;;;;;;8.86;74.59;101961.59;7355132;19;20379;-55
2023/01/29 11:26:19;;;;;;;;;;;;;;;8.87;74.69;101953.78;7360701;19;20031;-56
2023/01/29 11:28:46;;;;;;;;;;;;;;;8.90;74.60;101948.59;7357679;19;19926;-56
2023/01/29 11:31:20;;;;;;;;;;;;;;;8.93;74.53;101942.53;7343107;19;19941;-55
2023/01/29 11:33:45;;;;;;;;;;;;;;;8.95;74.43;101941.66;7358291;19;19981;-55
2023/01/29 11:36:20;;;;;;;;;;;;;;;8.98;74.97;101938.22;7358689;19;20028;-56
2023/01/29 11:38:46;;;;;;;;;;;;;;;9.02;74.98;101935.63;7356010;19;19976;-55
2023/01/29 11:41:17;;;;;;;;;;;;;;;9.07;74.82;101920.88;7356210;19;21233;-56
2023/01/29 11:43:42;;;;;;;;;;;;;;;9.11;74.74;101924.34;7359401;19;19919;-56
2023/01/29 11:46:12;;;;;;;;;;;;;;;9.15;74.95;101920.00;7357579;19;20008;-55
2023/01/29 11:48:41;;;;;;;;;;;;;;;9.20;74.91;101910.47;7356386;19;19930;-56
2023/01/29 11:51:07;;;;;;;;;;;;;;;9.25;74.94;101893.97;7347435;19;19930;-56
2023/01/29 11:53:36;;;;;;;;;;;;;;;9.32;74.97;101900.06;7346850;19;19914;-56
2023/01/29 11:56:06;;;;;;;;;;;;;;;9.36;74.75;101880.94;7359298;19;19918;-56
2023/01/29 11:58:33;;;;;;;;;;;;;;;9.42;74.97;101885.28;7355116;19;19919;-56
2023/01/29 12:00:59;;;;;;;;;;;;;;;9.48;74.93;101875.75;7356924;19;19935;-55
2023/01/29 12:03:31;;;;;;;;;;;;;;;9.56;75.57;101874.00;7355240;19;19928;-54
2023/01/29 12:06:01;;;;;;;;;;;;;;;9.62;74.82;101871.41;7358832;19;19950;-56
2023/01/29 12:08:30;;;;;;;;;;;;;;;9.69;74.90;101863.59;7354384;19;21038;-56
2023/01/29 12:11:06;;;;;;;;;;;;;;;9.75;74.97;101858.38;7356133;19;19919;-54
2023/01/29 12:13:31;;;;;;;;;;;;;;;9.79;74.45;101862.72;7358046;19;19938;-55
2023/01/29 12:16:12;;;;;;;;;;;;;;;9.83;74.67;101846.16;7358905;19;25311;-56
2023/01/29 12:18:40;;;;;;;;;;;;;;;9.86;74.57;101833.13;7356535;19;19919;-56
2023/01/29 12:21:11;;;;;;;;;;;;;;;9.89;74.34;101825.31;7334369;19;20339;-55
2023/01/29 12:23:36;;;;;;;;;;;;;;;9.90;74.33;101821.81;7355542;19;20363;-57
2023/01/29 12:26:08;;;;;;;;;;;;;;;9.93;74.07;101810.50;7353508;19;19931;-56
2023/01/29 12:28:33;;;;;;;;;;;;;;;9.95;74.49;101814.00;7360310;19;19911;-55
2023/01/29 12:31:14;;;;;;;;;;;;;;;9.98;74.31;101808.75;7364412;19;20317;-56
2023/01/29 12:33:50;;;;;;;;;;;;;;;9.99;73.94;101798.31;7362571;19;21126;-56
2023/01/29 12:36:15;;;;;;;;;;;;;;;10.03;74.37;101802.63;7363520;19;19914;-55
2023/01/29 12:38:42;;;;;;;;;;;;;;;10.06;74.17;101801.78;7363740;19;21020;-56
2023/01/29 12:41:20;;;;;;;;;;;;;;;10.09;74.41;101788.72;7361026;19;19945;-55
2023/01/29 12:43:52;;;;;;;;;;;;;;;10.12;73.93;101784.34;7364106;19;19925;-56
2023/01/29 12:46:21;;;;;;;;;;;;;;;10.08;74.38;101769.56;7363950;19;19929;-55
2023/01/29 12:48:48;;;;;;;;;;;;;;;10.22;74.45;101776.50;7363268;19;20574;-56
2023/01/29 12:51:16;;;;;;;;;;;;;;;10.25;74.11;101769.56;7366719;19;19930;-55
2023/01/29 12:54:00;;;;;;;;;;;;;;;10.31;74.42;101772.13;7362114;19;19922;-56
2023/01/29 12:56:25;;;;;;;;;;;;;;;10.38;74.55;101767.75;7362911;19;19914;-56
2023/01/29 12:58:53;;;;;;;;;;;;;;;10.43;74.48;101760.75;7366834;19;21095;-55
2023/01/29 13:01:27;;;;;;;;;;;;;;;10.48;74.54;101756.38;7359355;19;19930;-56
2023/01/29 13:04:09;;;;;;;;;;;;;;;10.56;74.66;101751.13;7364568;19;19910;-56
2023/01/29 13:06:40;;;;;;;;;;;;;;;10.64;74.66;101750.22;7362575;19;19918;-55
2023/01/29 13:09:07;;;;;;;;;;;;;;;10.73;74.54;101720.53;7327460;19;19918;-55
2023/01/29 13:11:49;;;;;;;;;;;;;;;10.83;74.69;101723.94;7350564;19;19941;-55
2023/01/29 13:14:33;;;;;;;;;;;;;;;10.93;74.69;101704.69;7361665;19;20564;-54
2023/01/29 13:17:11;;;;;;;;;;;;;;;11.05;74.95;101703.72;7362453;19;19982;-56
2023/01/29 13:19:44;;;;;;;;;;;;;;;11.18;74.97;101690.53;7360815;19;20347;-56
2023/01/29 13:22:24;;;;;;;;;;;;;;;11.33;74.44;101683.44;7359663;19;19930;-56